Amelia City, Florida
Current Conditions -  °F | °C
As of 2:35 AM on Wednesday 26 Nov 2014 (Local Time) from KFHB Reporting Station
Overcast Overcast  
Wind Chill: 63°   Ceiling: 600
Heat Index: 63°   Visibility: 2mi
Dew Point: 61°   Wind: 16mph
Humidity: 94%   Direction: 300°WNW
Pressure: 29.85"   Gusts: 21mph
Location:  30.6056°N, 81.5268°W
Report Text: KFHB 260735Z AUTO 30014G18KT 2SM BKN006 OVC011 17/16 A2985 RMK AO1
Loading
Personal Weather Stations






























Interactive Weather Map New forecast layout! Learn more

10-Day Weather Forecast

Advertisements
Track Severe Weather on mobile